Time;durP1;ratioP1;P1;durP2;ratioP2;P2;SDS_P1;SDS_P2;PMS_P1;PMS_P2;Temp;Humidity;BMP_temperature;BMP_pressure;BME280_temperature;BME280_humidity;BME280_pressure;Samples;Min_cycle;Max_cycle;Signal;HPM_P1;HPM_P2
2023/07/29 00:01:42;;;;;;;0.57;0.57;;;;;;;22.59;52.55;99156.34;5030096;28;20257;-62
2023/07/29 00:04:10;;;;;;;0.40;0.40;;;;;;;22.54;53.34;99152.47;5031829;28;20197;-62
2023/07/29 00:06:36;;;;;;;0.90;0.90;;;;;;;22.47;53.94;99154.75;5031771;28;20247;-61
2023/07/29 00:09:04;;;;;;;0.77;0.77;;;;;;;22.33;55.05;99139.38;5031693;28;20211;-62
2023/07/29 00:11:33;;;;;;;0.50;0.50;;;;;;;22.35;55.18;99142.72;5031247;28;20244;-62
2023/07/29 00:14:00;;;;;;;0.60;0.60;;;;;;;22.32;55.89;99142.97;5031442;28;20232;-62
2023/07/29 00:16:27;;;;;;;0.40;0.40;;;;;;;22.30;55.84;99144.84;5039519;28;20231;-62
2023/07/29 00:18:53;;;;;;;0.70;0.70;;;;;;;22.27;55.94;99147.72;5051503;28;20197;-61
2023/07/29 00:21:20;;;;;;;2.00;0.70;;;;;;;22.25;56.33;99155.69;5051427;28;20204;-62
2023/07/29 00:23:47;;;;;;;0.73;0.73;;;;;;;22.27;56.48;99156.41;5050961;28;20651;-61
2023/07/29 00:26:14;;;;;;;0.60;0.60;;;;;;;22.20;56.75;99164.84;5050997;28;20271;-61
2023/07/29 00:28:42;;;;;;;0.70;0.70;;;;;;;22.14;56.91;99154.91;5050855;28;20246;-61
2023/07/29 00:31:08;;;;;;;0.50;0.50;;;;;;;22.12;57.24;99160.25;5050777;28;20565;-62
2023/07/29 00:33:35;;;;;;;0.70;0.57;;;;;;;22.07;57.39;99161.59;5050844;28;20200;-61
2023/07/29 00:36:02;;;;;;;0.80;0.70;;;;;;;22.02;57.46;99155.91;5050930;28;20208;-62
2023/07/29 00:38:29;;;;;;;0.70;0.70;;;;;;;21.90;57.63;99150.75;5050964;28;20695;-61
2023/07/29 00:40:58;;;;;;;0.50;0.50;;;;;;;21.93;57.93;99163.53;5050837;28;20716;-62
2023/07/29 00:43:24;;;;;;;0.50;0.50;;;;;;;21.89;57.98;99154.28;5049573;28;20216;-61
2023/07/29 00:45:53;;;;;;;0.60;0.60;;;;;;;21.88;57.91;99157.81;5050653;28;20203;-62
2023/07/29 00:48:20;;;;;;;0.60;0.60;;;;;;;21.84;58.33;99148.56;5050297;28;20196;-61
2023/07/29 00:50:47;;;;;;;0.53;0.53;;;;;;;21.83;58.75;99154.75;5050757;28;20285;-62
2023/07/29 00:53:14;;;;;;;0.53;0.53;;;;;;;21.81;58.83;99148.81;5050894;28;20206;-62
2023/07/29 00:55:41;;;;;;;0.67;0.67;;;;;;;21.79;59.97;99145.50;5050743;28;20208;-62
2023/07/29 00:58:08;;;;;;;0.60;0.60;;;;;;;21.74;60.46;99142.44;5050581;28;20220;-62
2023/07/29 01:00:35;;;;;;;0.33;0.33;;;;;;;21.69;61.17;99136.75;5050069;28;20210;-62
2023/07/29 01:03:03;;;;;;;0.70;0.70;;;;;;;21.65;61.57;99145.75;5042421;28;20630;-62
2023/07/29 01:05:37;;;;;;;0.40;0.40;;;;;;;21.65;61.57;99145.75;5050455;28;20272;-63
2023/07/29 01:08:13;;;;;;;0.70;0.70;;;;;;;21.56;62.78;99149.09;5050463;28;20600;-62
2023/07/29 01:10:47;;;;;;;0.60;0.60;;;;;;;21.55;63.44;99147.44;5050582;28;20678;-62
2023/07/29 01:13:20;;;;;;;0.40;0.40;;;;;;;21.55;63.29;99150.03;5049987;28;20195;-61
2023/07/29 01:15:54;;;;;;;0.60;0.60;;;;;;;21.53;62.90;99148.53;5050349;28;20264;-62
2023/07/29 01:18:24;;;;;;;0.47;0.47;;;;;;;21.49;62.09;99139.31;5050421;28;20239;-62
2023/07/29 01:20:54;;;;;;;0.43;0.43;;;;;;;21.55;62.77;99147.44;5050433;28;20649;-62
2023/07/29 01:23:25;;;;;;;0.73;0.73;;;;;;;21.50;62.84;99154.81;5050236;28;20585;-62
2023/07/29 01:25:52;;;;;;;0.43;0.43;;;;;;;21.48;63.21;99156.72;5050427;28;20206;-62
2023/07/29 01:28:19;;;;;;;0.47;0.47;;;;;;;21.48;63.48;99150.69;5050318;28;20245;-61
2023/07/29 01:30:46;;;;;;;0.83;0.83;;;;;;;21.33;63.63;99127.44;5050137;28;20671;-62
2023/07/29 01:33:17;;;;;;;1.90;1.10;;;;;;;21.44;64.19;99157.91;5050097;28;20195;-61
2023/07/29 01:35:48;;;;;;;0.63;0.63;;;;;;;21.40;64.81;99153.88;5049783;28;20200;-61
2023/07/29 01:38:19;;;;;;;0.50;0.50;;;;;;;21.36;64.97;99153.28;5051367;28;20284;-62
2023/07/29 01:40:49;;;;;;;0.60;0.60;;;;;;;21.34;65.26;99151.75;5053275;28;20305;-62
2023/07/29 01:43:17;;;;;;;0.60;0.60;;;;;;;21.32;65.35;99156.28;5053396;28;20269;-61
2023/07/29 01:45:44;;;;;;;0.50;0.50;;;;;;;21.33;65.62;99153.53;5054205;28;20200;-62
2023/07/29 01:48:11;;;;;;;0.77;0.70;;;;;;;21.31;66.29;99149.38;5053858;28;20253;-61
2023/07/29 01:50:37;;;;;;;0.50;0.50;;;;;;;21.27;66.25;99154.00;5054179;28;20201;-61
2023/07/29 01:53:04;;;;;;;0.57;0.57;;;;;;;21.20;66.37;99149.38;5053911;28;20206;-62
2023/07/29 01:55:31;;;;;;;0.70;0.70;;;;;;;21.23;66.56;99156.97;5054182;28;20215;-62
2023/07/29 01:57:59;;;;;;;0.60;0.60;;;;;;;21.19;66.90;99161.59;5051450;28;20219;-61
2023/07/29 02:00:26;;;;;;;0.70;0.70;;;;;;;21.15;66.84;99160.19;5053974;28;20215;-62
2023/07/29 02:02:53;;;;;;;0.50;0.50;;;;;;;21.12;67.68;99167.41;5053901;28;20213;-61
2023/07/29 02:05:19;;;;;;;0.57;0.57;;;;;;;21.06;67.99;99160.03;5053798;28;20214;-62
2023/07/29 02:07:46;;;;;;;0.60;0.60;;;;;;;21.04;68.08;99174.94;5054039;28;20762;-61
2023/07/29 02:10:13;;;;;;;0.80;0.80;;;;;;;20.92;68.41;99164.50;5053859;28;20616;-62
2023/07/29 02:12:40;;;;;;;0.70;0.70;;;;;;;20.97;68.95;99173.75;5053938;28;20196;-62
2023/07/29 02:15:09;;;;;;;0.60;0.60;;;;;;;20.90;69.21;99176.81;5053447;28;20253;-62
2023/07/29 02:17:37;;;;;;;0.60;0.60;;;;;;;20.84;69.64;99174.66;5053317;28;20754;-62
2023/07/29 02:20:04;;;;;;;0.83;0.83;;;;;;;20.83;69.64;99170.44;5052935;28;20198;-62
2023/07/29 02:22:31;;;;;;;0.60;0.60;;;;;;;20.80;69.95;99175.88;5053505;28;20289;-61
2023/07/29 02:24:58;;;;;;;0.60;0.60;;;;;;;20.78;69.95;99166.50;5053375;28;20258;-62
2023/07/29 02:27:26;;;;;;;0.73;0.73;;;;;;;20.80;70.28;99167.22;5053382;28;20199;-62
2023/07/29 02:29:53;;;;;;;0.50;0.50;;;;;;;20.79;70.17;99169.00;5053243;28;20215;-62
2023/07/29 02:32:21;;;;;;;0.60;0.60;;;;;;;20.60;70.51;99142.66;5053002;28;20206;-61
2023/07/29 02:34:48;;;;;;;0.50;0.50;;;;;;;20.69;71.55;99168.03;5053415;28;20257;-61
2023/07/29 02:37:15;;;;;;;0.70;0.70;;;;;;;20.64;72.76;99170.16;5051690;28;20250;-61
2023/07/29 02:39:41;;;;;;;0.60;0.60;;;;;;;20.62;72.71;99171.19;5053337;28;20250;-61
2023/07/29 02:42:08;;;;;;;0.50;0.50;;;;;;;20.61;72.43;99174.75;5052952;28;20206;-61
2023/07/29 02:44:35;;;;;;;0.70;0.70;;;;;;;20.56;71.78;99172.50;5053420;28;20194;-61
2023/07/29 02:47:02;;;;;;;0.50;0.50;;;;;;;20.53;71.63;99177.09;5044917;28;20588;-62
2023/07/29 02:49:30;;;;;;;0.80;0.80;;;;;;;20.51;71.75;99185.03;5052230;28;20199;-61
2023/07/29 02:51:57;;;;;;;0.83;0.83;;;;;;;20.50;71.85;99188.56;5052662;28;20215;-61
2023/07/29 02:54:23;;;;;;;0.80;0.80;;;;;;;20.39;72.33;99175.50;5052577;28;20269;-62
2023/07/29 02:56:51;;;;;;;1.07;0.67;;;;;;;20.46;72.54;99187.13;5053196;28;20204;-61
2023/07/29 02:59:17;;;;;;;0.70;0.70;;;;;;;20.44;72.40;99183.81;5053055;28;20290;-61
2023/07/29 03:01:44;;;;;;;0.60;0.60;;;;;;;20.40;72.75;99185.81;5052611;28;20206;-61
2023/07/29 03:04:12;;;;;;;0.53;0.53;;;;;;;20.33;73.55;99192.41;5052808;28;20262;-62
2023/07/29 03:06:41;;;;;;;0.60;0.60;;;;;;;20.30;74.12;99192.63;5052288;28;20300;-61
2023/07/29 03:09:07;;;;;;;0.60;0.60;;;;;;;20.30;74.25;99202.22;5052582;28;20198;-61
2023/07/29 03:11:34;;;;;;;0.57;0.57;;;;;;;20.26;74.14;99205.94;5052255;28;20261;-61
2023/07/29 03:14:01;;;;;;;0.70;0.70;;;;;;;20.18;74.09;99197.88;5051246;28;20204;-62
2023/07/29 03:16:28;;;;;;;0.50;0.50;;;;;;;20.10;73.67;99201.03;5046173;28;20274;-62
2023/07/29 03:18:55;;;;;;;0.50;0.50;;;;;;;20.06;73.06;99198.78;5040577;28;20276;-61
2023/07/29 03:21:22;;;;;;;0.53;0.53;;;;;;;20.04;72.69;99198.03;5044691;28;20204;-62
2023/07/29 03:23:50;;;;;;;0.73;0.73;;;;;;;20.01;72.42;99200.84;5031719;28;20209;-62
2023/07/29 03:26:17;;;;;;;0.60;0.60;;;;;;;19.99;72.11;99200.16;5051100;28;20203;-62
2023/07/29 03:28:44;;;;;;;0.63;0.63;;;;;;;19.98;72.26;99196.72;5052043;28;20196;-62
2023/07/29 03:31:12;;;;;;;0.60;0.60;;;;;;;19.98;72.10;99211.50;5046963;28;20664;-62
2023/07/29 03:33:39;;;;;;;0.87;0.87;;;;;;;19.94;72.11;99200.47;5032169;28;20198;-62
2023/07/29 03:36:06;;;;;;;0.77;0.77;;;;;;;19.93;71.61;99204.84;5031952;28;20237;-62
2023/07/29 03:38:35;;;;;;;0.40;0.40;;;;;;;19.87;70.90;99200.06;5031829;28;20625;-62
2023/07/29 03:41:03;;;;;;;0.70;0.70;;;;;;;19.95;71.00;99216.91;5033529;28;20193;-62
2023/07/29 03:43:30;;;;;;;0.80;0.80;;;;;;;19.94;70.96;99216.06;5031166;28;20285;-62
2023/07/29 03:45:56;;;;;;;0.50;0.50;;;;;;;19.84;71.02;99200.28;5031771;28;20253;-62
2023/07/29 03:48:23;;;;;;;0.83;0.83;;;;;;;19.96;70.88;99223.78;5040463;28;20203;-63
2023/07/29 03:50:50;;;;;;;0.50;0.50;;;;;;;19.95;70.05;99222.13;5036689;28;20198;-63
2023/07/29 03:53:17;;;;;;;0.60;0.60;;;;;;;20.00;69.83;99222.63;5030572;28;20208;-63
2023/07/29 03:55:44;;;;;;;0.40;0.40;;;;;;;20.04;69.57;99226.66;5032968;28;20198;-62
2023/07/29 03:58:13;;;;;;;0.60;0.60;;;;;;;20.09;69.59;99224.56;5030275;28;20686;-62
2023/07/29 04:00:40;;;;;;;0.50;0.50;;;;;;;20.13;70.29;99226.03;5028547;28;20207;-62
2023/07/29 04:03:07;;;;;;;0.60;0.60;;;;;;;20.22;70.22;99227.97;5033416;28;20208;-62
2023/07/29 04:05:33;;;;;;;0.67;0.67;;;;;;;20.31;70.46;99235.13;5031777;28;20204;-62
2023/07/29 04:08:00;;;;;;;1.00;1.00;;;;;;;20.39;70.43;99240.59;5031695;28;20193;-62
2023/07/29 04:10:27;;;;;;;0.73;0.73;;;;;;;20.48;70.72;99237.34;5031459;28;20211;-62
2023/07/29 04:12:54;;;;;;;0.67;0.67;;;;;;;20.53;71.13;99243.03;5029561;28;20208;-63
2023/07/29 04:15:22;;;;;;;0.50;0.50;;;;;;;20.63;70.45;99236.22;5031822;28;20203;-62
2023/07/29 04:17:49;;;;;;;0.53;0.53;;;;;;;20.70;70.99;99242.63;5050204;28;20227;-62
2023/07/29 04:20:16;;;;;;;0.60;0.60;;;;;;;20.80;70.71;99241.00;5051425;28;20195;-62
2023/07/29 04:22:42;;;;;;;0.60;0.60;;;;;;;20.93;69.60;99246.97;5051426;28;20202;-62
2023/07/29 04:25:09;;;;;;;0.70;0.70;;;;;;;21.03;68.66;99239.28;5051448;28;20199;-62
2023/07/29 04:27:36;;;;;;;0.50;0.50;;;;;;;21.16;67.97;99240.06;5051027;28;20210;-62
2023/07/29 04:30:03;;;;;;;0.53;0.53;;;;;;;21.30;67.05;99244.19;5042806;28;20200;-62
2023/07/29 04:32:31;;;;;;;0.63;0.63;;;;;;;21.45;66.04;99243.03;5050904;28;20246;-63
2023/07/29 04:34:59;;;;;;;0.50;0.50;;;;;;;21.64;65.88;99248.50;5051476;28;20205;-62
2023/07/29 04:37:26;;;;;;;0.40;0.40;;;;;;;21.78;65.23;99237.78;5050968;28;20557;-62
2023/07/29 04:39:53;;;;;;;0.43;0.43;;;;;;;22.00;64.01;99246.56;5050970;28;20220;-63
2023/07/29 04:42:20;;;;;;;0.63;0.63;;;;;;;22.08;63.36;99238.94;5050372;28;20212;-62
2023/07/29 04:44:46;;;;;;;0.60;0.60;;;;;;;22.29;63.69;99245.06;5050667;28;20211;-63
2023/07/29 04:47:13;;;;;;;0.40;0.40;;;;;;;22.49;63.38;99244.25;5050400;28;20679;-62
2023/07/29 04:49:41;;;;;;;0.57;0.57;;;;;;;22.66;61.35;99249.00;5050827;28;20207;-62
2023/07/29 04:52:08;;;;;;;0.50;0.50;;;;;;;22.84;61.93;99244.03;5050151;28;20642;-62
2023/07/29 04:54:35;;;;;;;1.10;0.97;;;;;;;23.05;61.15;99254.47;5049469;28;20192;-62
2023/07/29 04:57:02;;;;;;;0.80;0.80;;;;;;;23.23;59.63;99255.56;5042260;28;20197;-63
2023/07/29 04:59:28;;;;;;;0.40;0.40;;;;;;;23.37;58.50;99257.81;5050238;28;20722;-62
2023/07/29 05:01:55;;;;;;;0.80;0.80;;;;;;;23.45;57.19;99255.44;5050361;28;20204;-62
2023/07/29 05:04:22;;;;;;;0.70;0.70;;;;;;;23.60;56.24;99254.13;5046225;28;20205;-62
2023/07/29 05:06:50;;;;;;;0.80;0.80;;;;;;;23.63;56.41;99243.38;5050288;28;20569;-62
2023/07/29 05:09:19;;;;;;;0.80;0.80;;;;;;;23.83;56.40;99260.81;5049597;28;20246;-62
2023/07/29 05:11:47;;;;;;;0.60;0.60;;;;;;;24.00;56.43;99262.81;5046458;28;20236;-62
2023/07/29 05:14:14;;;;;;;1.13;0.60;;;;;;;24.25;56.54;99263.28;5049337;28;20254;-62
2023/07/29 05:16:41;;;;;;;5.27;0.60;;;;;;;24.39;56.20;99242.75;5048724;28;20224;-62
2023/07/29 05:19:08;;;;;;;0.40;0.40;;;;;;;24.69;53.68;99267.97;5028609;28;20217;-61
2023/07/29 05:21:35;;;;;;;1.07;0.90;;;;;;;24.87;53.08;99268.16;5030876;28;20251;-64
2023/07/29 05:24:03;;;;;;;0.80;0.70;;;;;;;25.02;52.71;99267.56;5030126;28;20665;-61
2023/07/29 05:26:30;;;;;;;0.47;0.47;;;;;;;25.25;53.08;99256.75;5033443;28;20203;-61
2023/07/29 05:28:56;;;;;;;1.07;0.73;;;;;;;25.53;52.86;99261.94;5033312;28;20205;-61
2023/07/29 05:31:23;;;;;;;0.60;0.60;;;;;;;25.76;50.19;99265.00;5036814;28;20266;-61
2023/07/29 05:33:50;;;;;;;2.97;0.87;;;;;;;25.88;50.11;99250.72;5033198;28;20198;-61
2023/07/29 05:36:17;;;;;;;7.30;1.60;;;;;;;26.12;52.12;99265.94;5029865;28;20216;-62
2023/07/29 05:38:44;;;;;;;4.10;2.43;;;;;;;26.35;49.20;99269.00;5028675;28;20311;-61
2023/07/29 05:41:12;;;;;;;3.40;1.53;;;;;;;26.43;47.53;99271.72;5025051;28;20209;-62
2023/07/29 05:43:38;;;;;;;4.83;1.20;;;;;;;26.68;49.28;99276.22;5029473;28;20212;-62
2023/07/29 05:46:05;;;;;;;0.87;0.87;;;;;;;26.92;49.02;99278.22;5029724;28;20197;-62
2023/07/29 05:48:32;;;;;;;0.70;0.70;;;;;;;27.19;47.83;99279.91;5029158;28;20632;-62
2023/07/29 05:50:59;;;;;;;1.60;0.60;;;;;;;27.45;49.10;99275.50;5036277;28;20259;-61
2023/07/29 05:53:26;;;;;;;0.60;0.60;;;;;;;27.68;47.22;99276.63;5029767;28;20202;-61
2023/07/29 05:55:52;;;;;;;0.63;0.63;;;;;;;27.86;46.59;99279.97;5029624;28;20201;-61
2023/07/29 05:58:21;;;;;;;0.50;0.50;;;;;;;28.08;48.21;99274.16;5029218;28;20671;-61
2023/07/29 06:00:47;;;;;;;0.50;0.50;;;;;;;28.24;43.37;99270.72;5029195;28;20232;-62
2023/07/29 06:03:14;;;;;;;0.50;0.50;;;;;;;28.51;46.48;99274.91;5028113;28;20585;-62
2023/07/29 06:05:41;;;;;;;0.80;0.80;;;;;;;28.65;44.44;99275.13;5029224;28;20589;-61
2023/07/29 06:08:08;;;;;;;0.73;0.73;;;;;;;28.88;43.24;99275.28;5028164;28;20256;-61
2023/07/29 06:10:35;;;;;;;0.60;0.60;;;;;;;29.07;44.25;99277.59;5028875;28;20296;-62
2023/07/29 06:13:02;;;;;;;0.50;0.50;;;;;;;29.08;41.75;99268.66;5028609;28;20651;-61
2023/07/29 06:15:30;;;;;;;0.70;0.70;;;;;;;29.13;40.85;99279.56;5029049;28;20201;-61
2023/07/29 06:17:56;;;;;;;0.70;0.70;;;;;;;29.33;42.52;99268.66;5047967;28;20228;-61
2023/07/29 06:20:23;;;;;;;0.40;0.40;;;;;;;29.48;42.30;99274.88;5048680;28;20217;-61
2023/07/29 06:22:50;;;;;;;0.50;0.50;;;;;;;29.64;40.89;99274.84;5048255;28;20297;-61
2023/07/29 06:25:17;;;;;;;0.65;0.65;;;;;;;29.63;40.51;99262.59;5050132;28;20204;-62
2023/07/29 06:27:44;;;;;;;0.68;0.68;;;;;;;29.37;38.99;99270.78;5052964;28;20204;-61
2023/07/29 06:30:11;;;;;;;0.80;0.80;;;;;;;29.33;40.79;99255.47;5052316;28;20212;-61
2023/07/29 06:32:39;;;;;;;0.45;0.45;;;;;;;29.55;40.08;99267.94;5052555;28;20196;-64
2023/07/29 06:35:07;;;;;;;0.60;0.60;;;;;;;29.86;40.11;99258.25;5049844;28;20442;-64
2023/07/29 06:37:34;;;;;;;0.60;0.60;;;;;;;30.11;39.42;99261.63;5051648;28;20208;-64
2023/07/29 06:40:00;;;;;;;0.40;0.40;;;;;;;30.25;39.75;99260.84;5053441;28;20311;-64
2023/07/29 06:42:27;;;;;;;0.60;0.60;;;;;;;30.31;40.14;99257.50;5053359;28;20262;-64
2023/07/29 06:44:54;;;;;;;2.08;0.50;;;;;;;30.36;37.04;99264.94;5051284;28;20204;-64
2023/07/29 06:47:21;;;;;;;0.77;0.77;;;;;;;30.27;38.04;99268.63;5051511;28;20561;-63
2023/07/29 06:49:49;;;;;;;0.50;0.50;;;;;;;30.50;37.34;99261.56;5051898;28;20235;-64
2023/07/29 06:52:15;;;;;;;0.50;0.50;;;;;;;30.61;36.84;99264.59;5052484;28;20632;-64
2023/07/29 06:54:42;;;;;;;1.08;0.82;;;;;;;30.68;36.92;99264.72;5052708;28;20201;-63
2023/07/29 06:57:09;;;;;;;0.50;0.50;;;;;;;30.84;37.92;99269.06;5052416;28;20623;-63
2023/07/29 06:59:36;;;;;;;0.60;0.60;;;;;;;31.09;36.73;99267.84;5053265;28;20216;-63
2023/07/29 07:02:03;;;;;;;0.50;0.50;;;;;;;31.19;35.89;99276.38;5052902;28;20612;-63
2023/07/29 07:04:30;;;;;;;0.50;0.50;;;;;;;31.38;37.89;99262.59;5051983;28;20212;-63
2023/07/29 07:06:58;;;;;;;0.45;0.45;;;;;;;31.39;34.55;99263.41;5052984;28;20196;-64
2023/07/29 07:09:25;;;;;;;0.50;0.50;;;;;;;31.50;35.85;99261.19;5051627;28;20200;-63
2023/07/29 07:11:52;;;;;;;0.60;0.60;;;;;;;31.71;35.78;99263.06;5052763;28;20200;-63
2023/07/29 07:14:19;;;;;;;0.85;0.68;;;;;;;31.71;36.21;99248.00;5052784;28;20299;-63
2023/07/29 07:16:45;;;;;;;17.83;4.75;;;;;;;31.90;35.82;99251.88;5048651;28;20236;-64
2023/07/29 07:19:12;;;;;;;0.70;0.70;;;;;;;31.82;35.55;99244.06;5030973;28;20224;-64
2023/07/29 07:21:39;;;;;;;0.70;0.70;;;;;;;31.82;35.21;99245.88;5032171;28;20209;-64
2023/07/29 07:24:07;;;;;;;0.77;0.77;;;;;;;31.99;36.05;99244.66;5032893;28;20213;-64
2023/07/29 07:26:34;;;;;;;0.50;0.50;;;;;;;32.15;36.76;99239.97;5032839;28;20201;-64
2023/07/29 07:29:01;;;;;;;0.52;0.52;;;;;;;32.09;34.08;99245.19;5033786;28;20589;-65
2023/07/29 07:31:28;;;;;;;0.98;0.60;;;;;;;31.98;33.96;99230.59;5032291;28;20669;-63
2023/07/29 07:33:54;;;;;;;0.45;0.45;;;;;;;31.87;33.86;99235.53;5029751;28;20209;-64
2023/07/29 07:36:21;;;;;;;1.08;0.75;;;;;;;31.67;34.97;99236.13;5032086;28;20209;-64
2023/07/29 07:38:48;;;;;;;5.13;0.80;;;;;;;31.69;34.90;99235.94;5032101;28;20255;-64
2023/07/29 07:41:16;;;;;;;0.65;0.65;;;;;;;31.67;34.68;99237.94;5039814;28;20263;-64
2023/07/29 07:43:43;;;;;;;0.80;0.80;;;;;;;31.77;35.19;99233.16;5032201;28;20669;-64
2023/07/29 07:46:10;;;;;;;0.57;0.57;;;;;;;32.07;34.02;99229.50;5031619;28;20197;-64
2023/07/29 07:48:36;;;;;;;0.50;0.50;;;;;;;32.27;33.50;99229.69;5032011;28;20208;-64
2023/07/29 07:51:12;;;;;;;0.52;0.52;;;;;;;32.28;32.72;99230.53;5025179;28;20213;-64
2023/07/29 07:53:38;;;;;;;0.90;0.90;;;;;;;32.35;34.35;99232.22;5033623;28;20232;-64
2023/07/29 07:56:05;;;;;;;0.50;0.50;;;;;;;32.63;37.31;99227.00;5032120;28;20613;-63
2023/07/29 07:58:33;;;;;;;0.90;0.90;;;;;;;32.96;35.99;99228.06;5031974;28;20259;-64
2023/07/29 08:01:04;;;;;;;0.80;0.80;;;;;;;33.22;34.04;99217.66;5031810;28;20241;-64
2023/07/29 08:03:31;;;;;;;0.50;0.50;;;;;;;33.22;32.10;99201.69;5031455;28;20620;-64
2023/07/29 08:05:58;;;;;;;0.50;0.50;;;;;;;33.36;31.67;99212.41;5031490;28;20346;-64
2023/07/29 08:08:26;;;;;;;0.70;0.70;;;;;;;33.24;32.59;99212.97;5031780;28;20263;-64
2023/07/29 08:10:53;;;;;;;0.45;0.45;;;;;;;33.03;32.42;99217.47;5031829;28;20201;-64
2023/07/29 08:13:20;;;;;;;0.47;0.47;;;;;;;32.82;33.25;99210.41;5031790;28;20554;-63
2023/07/29 08:15:49;;;;;;;0.75;0.68;;;;;;;32.63;32.43;99208.41;5034330;28;20209;-64
2023/07/29 08:18:16;;;;;;;0.60;0.60;;;;;;;32.70;31.73;99212.75;5051647;28;20608;-64
2023/07/29 08:20:52;;;;;;;0.70;0.70;;;;;;;32.99;32.50;99206.41;5047461;28;20387;-63
2023/07/29 08:23:18;;;;;;;0.60;0.60;;;;;;;33.32;33.78;99200.50;5051129;28;20262;-64
2023/07/29 08:25:45;;;;;;;0.70;0.70;;;;;;;33.07;32.27;99193.00;5051412;28;20197;-64
2023/07/29 08:28:12;;;;;;;0.60;0.60;;;;;;;33.13;31.70;99192.25;5051487;28;20711;-64
2023/07/29 08:30:38;;;;;;;0.70;0.70;;;;;;;33.11;32.74;99188.97;5049212;28;20439;-66
2023/07/29 08:33:07;;;;;;;0.70;0.70;;;;;;;33.58;32.58;99179.38;5048813;28;20455;-66
2023/07/29 08:35:33;;;;;;;0.60;0.60;;;;;;;33.63;32.52;99188.44;5048347;28;20270;-67
2023/07/29 08:38:00;;;;;;;0.60;0.60;;;;;;;33.71;31.01;99184.78;5047200;28;20220;-67
2023/07/29 08:40:30;;;;;;;0.50;0.50;;;;;;;33.74;31.77;99187.03;5050052;28;20221;-66
2023/07/29 08:42:59;;;;;;;1.10;0.80;;;;;;;33.88;32.05;99175.44;5050244;28;20630;-67
2023/07/29 08:45:26;;;;;;;0.57;0.50;;;;;;;34.04;31.98;99179.56;5048618;28;20201;-66
2023/07/29 08:47:58;;;;;;;0.80;0.80;;;;;;;34.21;31.90;99173.69;5048545;28;20209;-66
2023/07/29 08:50:27;;;;;;;0.57;0.57;;;;;;;34.37;31.58;99174.31;5045043;28;20291;-67
2023/07/29 08:52:54;;;;;;;0.73;0.73;;;;;;;34.45;31.94;99156.28;5047874;28;20208;-66
2023/07/29 08:55:22;;;;;;;0.60;0.60;;;;;;;34.55;31.80;99161.19;5046479;28;20208;-69
2023/07/29 08:57:49;;;;;;;0.65;0.65;;;;;;;34.59;29.99;99167.75;5047827;28;20700;-66
2023/07/29 09:00:16;;;;;;;0.70;0.70;;;;;;;34.06;29.28;99162.34;5047556;28;20223;-69
2023/07/29 09:02:43;;;;;;;0.55;0.55;;;;;;;34.10;30.34;99163.59;5047920;28;20219;-67
2023/07/29 09:05:10;;;;;;;0.70;0.70;;;;;;;34.07;31.10;99160.53;5047966;28;20201;-66
2023/07/29 09:07:40;;;;;;;0.82;0.82;;;;;;;34.24;30.85;99164.47;5048091;28;20219;-66
2023/07/29 09:10:10;;;;;;;0.63;0.63;;;;;;;34.31;31.02;99159.16;5049809;28;20315;-67
2023/07/29 09:12:37;;;;;;;0.75;0.75;;;;;;;34.37;29.82;99166.31;5048568;28;20224;-66
2023/07/29 09:15:04;;;;;;;0.60;0.60;;;;;;;34.35;30.17;99149.75;5040466;28;20703;-66
2023/07/29 09:17:32;;;;;;;0.82;0.57;;;;;;;34.44;30.28;99138.69;5035736;28;20225;-66
2023/07/29 09:19:59;;;;;;;0.65;0.65;;;;;;;34.82;29.31;99149.53;5029159;28;20229;-65
2023/07/29 09:22:28;;;;;;;0.95;0.88;;;;;;;34.90;29.84;99143.97;5031971;28;20648;-66
2023/07/29 09:24:58;;;;;;;0.63;0.63;;;;;;;34.79;28.96;99125.97;5033821;28;20205;-69
2023/07/29 09:27:26;;;;;;;0.90;0.90;;;;;;;34.70;29.89;99135.22;5029738;28;20208;-66
2023/07/29 09:29:53;;;;;;;0.75;0.75;;;;;;;34.35;28.62;99139.09;5034987;28;20197;-69
2023/07/29 09:32:21;;;;;;;0.93;0.70;;;;;;;34.40;29.50;99133.97;5025918;28;20232;-66
2023/07/29 09:34:49;;;;;;;1.10;1.10;;;;;;;34.50;29.18;99137.84;5029688;28;20648;-67
2023/07/29 09:37:19;;;;;;;0.57;0.57;;;;;;;34.56;27.99;99125.56;5029836;28;20255;-66
2023/07/29 09:39:47;;;;;;;0.50;0.50;;;;;;;34.85;27.51;99122.47;5030411;28;20214;-66
2023/07/29 09:42:19;;;;;;;1.35;0.60;;;;;;;35.07;25.76;99107.84;5029661;28;20210;-66
2023/07/29 09:44:46;;;;;;;0.50;0.50;;;;;;;35.24;25.21;99108.22;5029298;28;20228;-66
2023/07/29 09:47:20;;;;;;;0.50;0.50;;;;;;;35.28;27.18;99110.25;5029839;28;20205;-66
2023/07/29 09:49:47;;;;;;;0.40;0.40;;;;;;;35.37;29.43;99104.69;5030045;28;20212;-66
2023/07/29 09:52:16;;;;;;;0.50;0.50;;;;;;;35.48;28.47;99107.50;5031203;28;20669;-66
2023/07/29 09:54:44;;;;;;;0.70;0.70;;;;;;;35.72;28.43;99117.44;5028844;28;20267;-66
2023/07/29 09:57:11;;;;;;;0.70;0.70;;;;;;;35.76;27.90;99115.19;5030715;28;20270;-66
2023/07/29 09:59:39;;;;;;;0.70;0.70;;;;;;;35.94;28.16;99115.25;5030142;28;20698;-67
2023/07/29 10:02:14;;;;;;;0.55;0.55;;;;;;;35.87;27.40;99105.66;5034124;28;20201;-66
2023/07/29 10:04:42;;;;;;;0.60;0.60;;;;;;;35.61;26.80;99110.13;5033528;28;20715;-66
2023/07/29 10:07:10;;;;;;;0.40;0.40;;;;;;;35.71;27.77;99114.97;5033368;28;20209;-69
2023/07/29 10:09:38;;;;;;;0.50;0.50;;;;;;;35.79;26.65;99112.06;5033537;28;20201;-66
2023/07/29 10:12:07;;;;;;;0.65;0.65;;;;;;;35.92;26.22;99101.31;5032859;28;20297;-66
2023/07/29 10:14:34;;;;;;;0.40;0.40;;;;;;;35.77;26.06;99104.28;5034663;28;20271;-66
2023/07/29 10:17:04;;;;;;;0.50;0.50;;;;;;;35.73;25.85;99107.59;5044915;28;20232;-66
2023/07/29 10:19:32;;;;;;;0.60;0.60;;;;;;;35.73;27.78;99104.94;5051652;28;20201;-67
2023/07/29 10:22:01;;;;;;;0.55;0.55;;;;;;;35.97;29.73;99100.66;5052569;28;20746;-66
2023/07/29 10:24:31;;;;;;;0.47;0.47;;;;;;;36.09;27.92;99102.44;5052416;28;20205;-67
2023/07/29 10:27:00;;;;;;;0.60;0.60;;;;;;;36.23;26.36;99101.28;5052327;28;20209;-68
2023/07/29 10:29:31;;;;;;;0.93;0.82;;;;;;;35.68;26.29;99096.75;5052822;28;20201;-67
2023/07/29 10:32:00;;;;;;;0.70;0.70;;;;;;;35.27;26.16;99091.81;5052763;28;20676;-65
2023/07/29 10:34:28;;;;;;;0.50;0.50;;;;;;;35.17;26.10;99081.59;5052590;28;20212;-69
2023/07/29 10:36:55;;;;;;;0.50;0.50;;;;;;;34.97;27.25;99075.50;5052253;28;20274;-67
2023/07/29 10:39:22;;;;;;;0.70;0.70;;;;;;;35.26;26.89;99080.31;5052384;28;20204;-66
2023/07/29 10:42:01;;;;;;;0.30;0.30;;;;;;;35.17;26.00;99078.13;5052068;28;20220;-67
2023/07/29 10:44:49;;;;;;;0.50;0.50;;;;;;;35.13;26.18;99080.38;5051949;28;20562;-66
2023/07/29 10:47:16;;;;;;;0.50;0.50;;;;;;;35.30;28.42;99070.06;5051738;28;20204;-66
2023/07/29 10:49:46;;;;;;;1.13;1.13;;;;;;;35.35;25.45;99050.78;5052575;28;20604;-66
2023/07/29 10:52:14;;;;;;;0.63;0.63;;;;;;;35.58;28.78;99069.69;5052352;28;20239;-66
2023/07/29 10:54:44;;;;;;;0.82;0.57;;;;;;;35.77;28.11;99060.75;5052581;28;20671;-66
2023/07/29 10:57:15;;;;;;;0.50;0.50;;;;;;;35.82;25.08;99063.63;5052670;28;20201;-69
2023/07/29 10:59:42;;;;;;;0.40;0.40;;;;;;;35.85;27.50;99052.50;5050960;28;20295;-66
2023/07/29 11:02:19;;;;;;;0.75;0.55;;;;;;;35.96;26.98;99057.16;5052235;28;20223;-66
2023/07/29 11:04:51;;;;;;;0.40;0.40;;;;;;;35.93;26.17;99059.44;5051937;28;20291;-67
2023/07/29 11:07:27;;;;;;;0.43;0.43;;;;;;;35.95;27.10;99042.19;5052313;28;20201;-66
2023/07/29 11:09:59;;;;;;;2.00;0.50;;;;;;;35.97;26.36;99052.63;5051767;28;20200;-70
2023/07/29 11:12:45;;;;;;;0.40;0.40;;;;;;;35.90;25.49;99046.53;5051033;28;20205;-66
2023/07/29 11:15:23;;;;;;;0.40;0.40;;;;;;;35.61;25.59;99047.94;5050804;28;20296;-66
2023/07/29 11:17:51;;;;;;;0.50;0.50;;;;;;;35.66;27.52;99026.81;5036073;28;20232;-66
2023/07/29 11:20:22;;;;;;;0.47;0.47;;;;;;;35.93;26.53;99036.22;5031947;28;20221;-66
2023/07/29 11:22:49;;;;;;;0.60;0.60;;;;;;;36.03;26.10;99028.53;5031392;28;20205;-67
2023/07/29 11:25:17;;;;;;;0.50;0.50;;;;;;;35.76;25.53;99027.16;5029328;28;20205;-66
2023/07/29 11:27:44;;;;;;;0.50;0.50;;;;;;;35.87;26.35;99018.41;5030544;28;20255;-68
2023/07/29 11:30:13;;;;;;;0.35;0.35;;;;;;;35.38;25.44;99018.34;5031679;28;20208;-69
2023/07/29 11:32:42;;;;;;;0.50;0.50;;;;;;;35.25;24.13;99020.03;5033749;28;20205;-66
2023/07/29 11:35:10;;;;;;;0.50;0.50;;;;;;;35.37;24.87;99024.72;5032031;28;20212;-66
2023/07/29 11:37:40;;;;;;;0.40;0.40;;;;;;;35.25;23.66;99025.38;5032158;28;20197;-68